Impacts METAR Board
IDs:

KBFM - Mobile/Downtown Arpt, AL, US

Updated at: 1200 UTC 20 May 2018
Potential Impact None Slight Moderate High
Time 20/00Z 20/01Z 20/02Z 20/03Z 20/04Z 20/05Z 20/06Z 20/07Z 20/08Z 20/09Z 20/10Z 20/11Z 20/12Z
Temp83 82 81 80 79 78 78 76 77 77 74 74 76
Dewpt74 74 74 74 74 74 75 74 74 74 73 73 75
Altim29.99 30.01 30.04 30.06 30.07 30.06 30.06 30.05 30.04 30.04 30.06 30.07 30.07
VIS10 10 10 10 10 10 10 10 10 10 5 6 7
CIG110 95 90 110 -- -- 21 95 -- -- -- -- --
CoverOVCOVCOVCBKNCLRCLROVCOVCCLRCLRCLRFEWFEW
FltCatVFRVFRVFRVFRVFRVFRMVFRVFRVFRVFRMVFRVFRVFR
WX--------------------BRBR--
WDir1801800018020000190180330330320
WSpd7 3 0 0 3 3 0 0 3 4 6 3 3
WGst-- -- -- -- -- -- -- -- -- -- -- -- --
Raw hourly METARs
KBFM 192353Z 18007KT 10SM OVC110 28/23 A2999 RMK AO2 LTG DSNT N SLP155 T02830233 10311 20283 53004
KBFM 200053Z AUTO 18003KT 10SM BKN095 OVC120 28/23 A3001 RMK AO2 LTG DSNT N SLP163 T02780233
KBFM 200153Z AUTO 00000KT 10SM OVC090 27/23 A3004 RMK AO2 SLP172 T02720233
KBFM 200253Z AUTO 00000KT 10SM BKN110 27/23 A3006 RMK AO2 SLP179 T02670233 51024
KBFM 200353Z AUTO 18003KT 10SM CLR 26/23 A3007 RMK AO2 SLP183 T02610233
KBFM 200453Z AUTO 20003KT 10SM CLR 26/23 A3006 RMK AO2 SLP178 T02560233
KBFM 200601Z AUTO 00000KT 10SM BKN021 BKN027 OVC090 26/24 A3006 RMK AO2 T02560239
KBFM 200653Z AUTO 00000KT 10SM FEW022 BKN095 OVC110 24/23 A3005 RMK AO2 SLP176 T02440233
KBFM 200753Z AUTO 19003KT 10SM CLR 25/23 A3004 RMK AO2 SLP173 T02500233
KBFM 200853Z AUTO 18004KT 10SM CLR 25/23 A3004 RMK AO2 SLP172 T02500233 56008
KBFM 200953Z AUTO 33006KT 5SM BR CLR 23/23 A3006 RMK AO2 SLP178 T02330228
KBFM 201053Z AUTO 33003KT 6SM BR FEW020 23/23 A3007 RMK AO2 SLP182 T02330228
KBFM 201204Z 32003KT 7SM FEW005 24/24 A3007 RMK AO2 T02440239



Page loaded:  12:14 UTC  |   05:14 AM Pacific  |   06:14 AM Mountain  |   07:14 AM Central  |   08:14 AM Eastern

 

ADVISORIES

FORECASTS

FORECASTS

OBSERVATIONS

USER TOOLS

ABOUT US